Time;durP1;ratioP1;P1;durP2;ratioP2;P2;SDS_P1;SDS_P2;PMS_P1;PMS_P2;Temp;Humidity;BMP_temperature;BMP_pressure;BME280_temperature;BME280_humidity;BME280_pressure;Samples;Min_cycle;Max_cycle;Signal;HPM_P1;HPM_P2
2021/03/28 00:02:33;;;;;;;19.10;12.98;;;;;;;5.82;76.83;99038.39;1824589;78;21062;-73
2021/03/28 00:05:30;;;;;;;19.62;13.68;;;;;;;5.81;75.88;99029.50;1824654;77;21467;-71
2021/03/28 00:08:04;;;;;;;19.87;11.05;;;;;;;5.83;77.87;99021.20;1824632;78;21243;-72
2021/03/28 00:10:40;;;;;;;15.28;10.13;;;;;;;5.80;76.28;99017.06;1820239;77;21417;-72
2021/03/28 00:13:26;;;;;;;16.97;9.75;;;;;;;5.75;76.08;99014.25;1797199;78;21066;-72
2021/03/28 00:16:00;;;;;;;16.27;9.35;;;;;;;5.69;77.56;99013.79;1797190;78;21526;-72
2021/03/28 00:18:52;;;;;;;12.03;9.23;;;;;;;5.67;77.18;99014.55;1824627;78;21050;-72
2021/03/28 00:21:25;;;;;;;16.12;10.70;;;;;;;5.61;76.84;99011.39;1824644;77;21194;-71
2021/03/28 00:24:06;;;;;;;18.40;11.45;;;;;;;5.59;76.58;99019.69;1822667;78;21110;-72
2021/03/28 00:26:37;;;;;;;15.63;11.18;;;;;;;5.55;76.28;99018.47;1822714;77;21141;-72
2021/03/28 00:29:24;;;;;;;15.20;9.70;;;;;;;5.46;76.12;99018.98;1825910;78;21522;-72
2021/03/28 00:32:06;;;;;;;19.55;12.58;;;;;;;5.44;76.09;99019.22;1832714;78;21142;-72
2021/03/28 00:34:35;;;;;;;25.72;15.58;;;;;;;5.42;75.94;99028.55;1832758;77;21252;-72
2021/03/28 00:37:10;;;;;;;29.55;18.82;;;;;;;5.43;76.09;99033.70;1832725;78;21109;-72
2021/03/28 00:39:57;;;;;;;22.48;15.80;;;;;;;5.44;75.91;99029.97;1832626;77;21499;-72
2021/03/28 00:42:36;;;;;;;25.92;15.65;;;;;;;5.48;75.88;99031.19;1832808;78;21499;-72
2021/03/28 00:45:12;;;;;;;;;;;;;;;5.43;78.28;99023.48;1835482;77;21086;-72
2021/03/28 00:47:38;;;;;;;21.20;14.13;;;;;;;5.44;77.61;99031.84;1832751;78;21193;-72
2021/03/28 00:50:22;;;;;;;25.90;15.65;;;;;;;5.40;79.39;99030.66;1832527;77;21101;-72
2021/03/28 00:52:57;;;;;;;25.95;15.38;;;;;;;5.39;77.08;99040.58;1831483;78;21431;-72
2021/03/28 00:55:43;;;;;;;21.75;14.40;;;;;;;5.36;76.80;99045.86;1832641;77;21475;-72
2021/03/28 00:58:17;;;;;;;21.10;12.75;;;;;;;5.31;78.60;99040.34;1831163;78;21014;-72
2021/03/28 01:01:06;;;;;;;29.72;19.00;;;;;;;5.26;81.30;99040.17;1832650;77;21313;-72
2021/03/28 01:04:28;;;;;;;18.07;12.93;;;;;;;5.23;81.24;99045.17;1830668;78;21125;-71
2021/03/28 01:07:17;;;;;;;24.15;15.68;;;;;;;5.24;80.77;99036.89;1832675;78;20983;-72
2021/03/28 01:10:13;;;;;;;;;;;;;;;5.16;80.88;99042.54;1812757;76;21045;-72
2021/03/28 01:13:21;;;;;;;18.15;11.25;;;;;;;5.12;79.40;99033.78;1832888;78;20470;-72
2021/03/28 01:16:17;;;;;;;18.90;12.93;;;;;;;5.02;80.28;99035.09;1832937;76;21199;-72
2021/03/28 01:19:08;;;;;;;25.02;17.98;;;;;;;4.95;80.19;99036.19;1832742;78;21506;-72
2021/03/28 01:21:58;;;;;;;27.17;16.95;;;;;;;4.93;81.42;99039.09;1830888;77;21093;-71
2021/03/28 01:24:53;;;;;;;27.27;17.15;;;;;;;4.94;81.57;99033.20;1831997;77;21022;-72
2021/03/28 01:27:37;;;;;;;23.32;15.15;;;;;;;4.97;80.99;99040.32;1832785;78;21082;-72
2021/03/28 01:30:16;;;;;;;25.32;16.87;;;;;;;4.99;79.62;99042.26;1828359;77;22043;-72
2021/03/28 01:32:49;;;;;;;22.60;14.75;;;;;;;4.98;79.33;99047.86;1826387;78;21147;-71
2021/03/28 01:35:39;;;;;;;22.77;14.70;;;;;;;5.04;79.28;99046.47;1826583;77;21483;-72
2021/03/28 01:38:19;;;;;;;24.67;17.17;;;;;;;5.13;79.21;99042.98;1821722;78;21090;-72
2021/03/28 01:40:51;;;;;;;21.62;14.53;;;;;;;5.11;81.86;99036.98;1794824;78;21090;-72
2021/03/28 01:43:40;;;;;;;21.20;15.35;;;;;;;5.18;81.11;99045.00;1826588;78;22310;-72
2021/03/28 01:46:26;;;;;;;;;;;;;;;5.20;80.77;99054.48;1829121;77;21101;-72
2021/03/28 01:48:58;;;;;;;23.83;15.63;;;;;;;5.21;81.60;99049.92;1825287;78;20538;-72
2021/03/28 01:51:41;;;;;;;22.90;16.05;;;;;;;5.15;81.83;99052.98;1826610;77;21510;-71
2021/03/28 01:54:24;;;;;;;39.18;23.75;;;;;;;5.15;80.08;99048.95;1826646;78;21456;-72
2021/03/28 01:56:56;;;;;;;39.58;24.82;;;;;;;5.10;80.45;99051.47;1817009;78;21285;-72
2021/03/28 02:00:01;;;;;;;27.65;18.95;;;;;;;5.09;79.25;99060.57;1826315;77;21125;-72
2021/03/28 02:03:04;;;;;;;32.78;20.85;;;;;;;5.09;78.81;99067.29;1826623;78;21177;-72
2021/03/28 02:05:52;;;;;;;20.65;14.60;;;;;;;5.09;78.74;99072.14;1826458;77;21039;-72
2021/03/28 02:08:48;;;;;;;27.50;17.20;;;;;;;5.09;78.62;99068.63;1826470;78;21138;-72
2021/03/28 02:11:47;;;;;;;27.73;23.42;;;;;;;5.06;78.91;99071.24;1812366;78;22171;-72
2021/03/28 02:14:25;;;;;;;26.93;19.27;;;;;;;5.08;79.08;99081.77;1826578;78;21098;-72
2021/03/28 02:17:25;;;;;;;12.80;7.70;;;;;;;5.11;78.90;99084.01;1825027;78;21039;-72
2021/03/28 02:20:03;;;;;;;6.58;4.12;;;;;;;5.10;78.25;99080.50;1826545;77;21019;-72
2021/03/28 02:22:43;;;;;;;5.78;3.75;;;;;;;5.08;76.71;99089.30;1795351;78;21047;-71
2021/03/28 02:25:48;;;;;;;10.48;3.90;;;;;;;5.04;74.64;99086.77;1826490;77;22021;-72
2021/03/28 02:28:39;;;;;;;6.33;3.62;;;;;;;4.97;73.25;99094.05;1826512;78;21098;-71
2021/03/28 02:31:13;;;;;;;6.22;3.27;;;;;;;4.90;73.35;99098.63;1825001;77;21098;-73
2021/03/28 02:33:53;;;;;;;4.62;2.67;;;;;;;4.85;72.65;99101.66;1823428;78;21408;-72
2021/03/28 02:36:38;;;;;;;5.97;3.58;;;;;;;4.77;72.02;99103.55;1823975;77;21142;-71
2021/03/28 02:39:28;;;;;;;5.58;2.77;;;;;;;4.70;72.66;99100.59;1824726;78;21188;-73
2021/03/28 02:42:17;;;;;;;7.45;3.27;;;;;;;4.67;72.72;99098.36;1804514;78;21075;-71
2021/03/28 02:45:09;;;;;;;9.35;3.20;;;;;;;4.64;72.14;99113.05;1824716;77;28144;-71
2021/03/28 02:48:06;;;;;;;7.37;3.42;;;;;;;4.59;71.65;99119.56;1824757;78;21582;-71
2021/03/28 02:51:11;;;;;;;3.12;2.22;;;;;;;4.56;72.02;99125.89;1824572;77;21121;-72
2021/03/28 02:53:52;;;;;;;6.65;2.30;;;;;;;4.53;71.73;99134.68;1824390;78;21396;-73
2021/03/28 02:56:42;;;;;;;5.05;2.80;;;;;;;4.50;71.20;99134.27;1809019;78;21078;-72
2021/03/28 02:59:26;;;;;;;5.87;3.42;;;;;;;4.48;71.07;99137.69;1824642;78;21059;-72
2021/03/28 03:02:43;;;;;;;4.20;2.62;;;;;;;4.50;71.28;99140.45;1824503;78;21168;-72
2021/03/28 03:05:42;;;;;;;4.47;2.90;;;;;;;4.53;70.94;99144.59;1824564;77;21023;-72
2021/03/28 03:08:41;;;;;;;8.93;3.45;;;;;;;4.58;71.15;99143.94;1824769;78;21177;-71
2021/03/28 03:12:03;;;;;;;4.50;2.50;;;;;;;4.62;71.25;99161.28;1824601;77;21071;-71
2021/03/28 03:14:42;;;;;;;7.60;5.30;;;;;;;4.50;69.40;99170.50;1824615;77;21067;-72
2021/03/28 03:17:27;;;;;;;;;;;;;;;4.46;70.86;99180.03;1822982;78;21085;-71
2021/03/28 03:20:38;;;;;;;10.82;6.40;;;;;;;4.34;72.51;99186.55;1824588;77;20220;-72
2021/03/28 03:23:45;;;;;;;11.18;6.45;;;;;;;4.24;72.12;99188.86;1824616;78;21182;-72
2021/03/28 03:26:43;;;;;;;15.25;8.23;;;;;;;3.94;75.28;99197.39;1823704;77;21090;-72
2021/03/28 03:29:35;;;;;;;12.55;7.12;;;;;;;3.92;74.98;99200.77;1824258;78;21106;-72
2021/03/28 03:32:12;;;;;;;11.18;7.12;;;;;;;3.82;76.51;99196.87;1824620;78;21083;-73
2021/03/28 03:35:16;;;;;;;12.70;7.12;;;;;;;3.81;76.15;99201.92;1824229;77;21090;-72
2021/03/28 03:38:09;;;;;;;14.15;6.62;;;;;;;3.73;76.24;99205.64;1824004;78;21390;-72
2021/03/28 03:41:14;;;;;;;11.35;7.10;;;;;;;3.84;75.47;99214.91;1824554;77;21486;-72
2021/03/28 03:43:54;;;;;;;11.93;7.12;;;;;;;3.82;75.63;99209.75;1824548;78;21094;-72
2021/03/28 03:46:40;;;;;;;10.82;8.00;;;;;;;3.81;75.13;99212.65;1808086;77;21078;-73
2021/03/28 03:50:04;;;;;;;12.18;7.55;;;;;;;3.78;75.39;99213.89;1824649;78;21079;-71
2021/03/28 03:52:55;;;;;;;12.00;7.95;;;;;;;3.80;75.08;99215.02;1824671;78;21203;-73
2021/03/28 03:55:39;;;;;;;13.25;7.15;;;;;;;3.78;74.89;99215.75;1824559;77;21091;-72
2021/03/28 03:58:39;;;;;;;11.57;7.80;;;;;;;3.75;74.51;99212.95;1824568;78;21110;-72
2021/03/28 04:01:22;;;;;;;8.83;7.25;;;;;;;3.68;74.75;99223.70;1824523;77;21090;-72
2021/03/28 04:04:12;;;;;;;11.60;7.08;;;;;;;3.73;75.12;99221.72;1824615;78;21070;-71
2021/03/28 04:06:56;;;;;;;12.47;6.12;;;;;;;3.68;74.99;99224.22;1824563;77;21192;-71
2021/03/28 04:09:47;;;;;;;8.58;5.87;;;;;;;3.73;75.20;99231.63;1824463;77;21141;-72
2021/03/28 04:12:57;;;;;;;8.90;5.87;;;;;;;3.75;75.28;99229.55;1824569;78;21074;-72
2021/03/28 04:15:34;;;;;;;10.58;5.95;;;;;;;3.83;75.37;99238.73;1824508;77;21130;-72
2021/03/28 04:18:35;;;;;;;11.08;6.08;;;;;;;3.90;75.29;99239.05;1823052;78;21381;-72
2021/03/28 04:21:25;;;;;;;7.85;6.12;;;;;;;3.92;75.17;99241.52;1824603;77;22114;-72
2021/03/28 04:24:18;;;;;;;15.58;8.30;;;;;;;3.94;74.99;99249.69;1824574;78;21107;-72
2021/03/28 04:26:56;;;;;;;12.00;7.58;;;;;;;3.95;74.87;99255.87;1824256;78;21106;-72
2021/03/28 04:29:22;;;;;;;11.93;7.47;;;;;;;3.94;74.70;99263.09;1824115;77;21539;-73
2021/03/28 04:32:06;;;;;;;14.50;8.38;;;;;;;3.95;74.42;99258.55;1826165;78;21022;-71
2021/03/28 04:35:02;;;;;;;11.90;5.85;;;;;;;3.91;74.33;99251.94;1826188;77;21265;-72
2021/03/28 04:38:15;;;;;;;9.88;6.50;;;;;;;3.83;74.15;99256.16;1826573;78;21523;-72
2021/03/28 04:41:19;;;;;;;15.60;7.55;;;;;;;3.76;74.44;99261.55;1825761;77;21050;-73
2021/03/28 04:44:24;;;;;;;13.13;6.00;;;;;;;3.75;74.89;99258.53;1825930;78;21106;-72
2021/03/28 04:47:13;;;;;;;9.58;5.08;;;;;;;3.70;75.04;99261.02;1826681;78;21412;-72
2021/03/28 04:50:01;;;;;;;14.20;6.08;;;;;;;3.67;75.06;99256.91;1825900;77;21965;-72
2021/03/28 04:52:50;;;;;;;8.83;3.92;;;;;;;3.63;75.05;99261.00;1826636;78;21062;-73
2021/03/28 04:55:25;;;;;;;7.60;4.45;;;;;;;3.61;75.08;99263.59;1826531;77;21042;-72
2021/03/28 04:58:14;;;;;;;5.33;3.77;;;;;;;3.57;75.14;99262.33;1826679;78;21083;-72
2021/03/28 05:01:07;;;;;;;;;;;;;;;3.56;74.92;99267.38;1829337;77;21019;-71
2021/03/28 05:04:01;;;;;;;8.10;5.65;;;;;;;3.47;75.20;99272.62;1826724;78;22152;-73
2021/03/28 05:07:25;;;;;;;7.42;4.12;;;;;;;3.50;74.80;99270.88;1826455;77;21094;-72
2021/03/28 05:10:28;;;;;;;16.67;9.65;;;;;;;3.51;75.01;99270.69;1826530;77;21047;-72
2021/03/28 05:13:23;;;;;;;5.80;4.03;;;;;;;3.48;75.48;99272.94;1826601;78;21090;-72
2021/03/28 05:16:13;;;;;;;5.80;3.15;;;;;;;3.45;75.35;99274.69;1826555;77;21396;-71
2021/03/28 05:19:36;;;;;;;8.70;4.85;;;;;;;3.56;75.43;99279.45;1826597;78;21472;-73
2021/03/28 05:22:07;;;;;;;4.08;2.92;;;;;;;3.65;75.34;99281.72;1826537;78;21125;-73
2021/03/28 05:25:05;;;;;;;8.08;3.80;;;;;;;3.71;75.03;99283.29;1815962;77;21077;-73
2021/03/28 05:28:12;;;;;;;4.83;2.75;;;;;;;3.74;74.64;99284.20;1826653;78;21419;-72
2021/03/28 05:31:07;;;;;;;5.20;3.45;;;;;;;3.75;74.38;99292.04;1826558;77;21165;-72
2021/03/28 05:34:05;;;;;;;4.37;2.90;;;;;;;3.72;74.37;99300.50;1826570;78;22038;-72
2021/03/28 05:36:48;;;;;;;5.77;2.67;;;;;;;3.71;74.29;99294.02;1826731;77;21405;-71
2021/03/28 05:39:58;;;;;;;5.37;3.35;;;;;;;3.67;74.30;99302.47;1826602;78;21589;-71
2021/03/28 05:42:54;;;;;;;5.80;2.60;;;;;;;3.70;74.28;99312.47;1826521;78;21122;-73
2021/03/28 05:46:07;;;;;;;7.47;6.10;;;;;;;3.78;74.39;99304.23;1821873;77;21496;-72
2021/03/28 05:49:10;;;;;;;8.58;4.62;;;;;;;3.82;74.19;99304.12;1890229;76;22672;-71
2021/03/28 05:51:48;;;;;;;6.58;3.30;;;;;;;3.87;74.24;99305.69;1854476;77;21039;-73
2021/03/28 05:55:00;;;;;;;4.08;3.10;;;;;;;3.93;74.03;99312.41;1854121;77;21272;-72
2021/03/28 05:57:51;;;;;;;8.23;5.25;;;;;;;4.00;73.85;99318.27;1854110;77;21075;-72
2021/03/28 06:00:57;;;;;;;6.80;4.00;;;;;;;4.05;73.44;99317.14;1853056;77;21000;-71
2021/03/28 06:04:06;;;;;;;5.78;3.27;;;;;;;4.03;73.24;99321.38;1853633;77;21071;-72
2021/03/28 06:07:00;;;;;;;9.48;4.30;;;;;;;4.05;73.17;99321.17;1852058;77;26210;-72
2021/03/28 06:10:04;;;;;;;5.65;3.40;;;;;;;4.06;73.23;99330.86;1787525;77;21095;-72
2021/03/28 06:12:35;;;;;;;4.17;3.17;;;;;;;4.09;73.50;99339.83;1854138;77;20897;-72
2021/03/28 06:15:33;;;;;;;4.10;3.02;;;;;;;4.11;73.32;99338.61;1854220;77;21473;-72
2021/03/28 06:18:34;;;;;;;5.80;4.15;;;;;;;4.22;73.21;99344.69;1854359;77;21425;-72
2021/03/28 06:21:35;;;;;;;5.12;3.40;;;;;;;4.36;72.94;99341.99;1854117;77;21075;-72
2021/03/28 06:24:15;;;;;;;5.97;3.55;;;;;;;4.46;72.35;99344.59;1854159;77;22112;-72
2021/03/28 06:27:16;;;;;;;5.00;3.00;;;;;;;4.71;72.19;99346.63;1853973;77;21073;-71
2021/03/28 06:30:19;;;;;;;5.60;3.10;;;;;;;4.76;71.95;99356.20;1853201;77;21609;-73
2021/03/28 06:33:20;;;;;;;8.95;4.33;;;;;;;4.83;71.74;99349.48;1854089;77;21114;-72
2021/03/28 06:36:27;;;;;;;7.53;3.67;;;;;;;4.91;71.29;99350.59;1854214;77;21055;-71
2021/03/28 06:39:40;;;;;;;5.45;3.95;;;;;;;5.00;71.17;99354.70;1853785;77;21487;-71
2021/03/28 06:42:34;;;;;;;8.25;3.33;;;;;;;5.12;70.97;99359.72;1854019;77;21087;-71
2021/03/28 06:45:52;;;;;;;6.15;4.80;;;;;;;5.58;70.13;99356.84;1854083;77;21079;-71
2021/03/28 06:48:24;;;;;;;5.85;3.17;;;;;;;5.85;69.61;99363.42;1858616;77;21095;-72
2021/03/28 06:51:29;;;;;;;10.40;5.05;;;;;;;5.87;68.72;99353.27;1859179;77;21407;-70
2021/03/28 06:54:38;;;;;;;17.05;11.68;;;;;;;5.96;68.86;99370.00;1860401;77;21291;-72
2021/03/28 06:57:13;;;;;;;8.30;4.92;;;;;;;5.85;67.46;99372.84;1860527;77;21408;-72
2021/03/28 07:00:04;;;;;;;7.30;5.20;;;;;;;5.84;67.25;99374.70;1859988;77;21246;-72
2021/03/28 07:03:13;;;;;;;10.13;5.42;;;;;;;5.75;66.05;99371.97;1859834;77;21427;-72
2021/03/28 07:05:47;;;;;;;5.60;4.28;;;;;;;5.75;66.90;99375.17;1860036;77;21491;-71
2021/03/28 07:08:40;;;;;;;7.10;5.25;;;;;;;5.97;66.50;99372.99;1859719;77;21249;-71
2021/03/28 07:11:56;;;;;;;11.15;5.25;;;;;;;5.95;65.29;99381.28;1859783;77;21499;-71
2021/03/28 07:14:36;;;;;;;7.55;5.08;;;;;;;5.68;62.94;99379.77;1859859;77;21487;-70
2021/03/28 07:17:31;;;;;;;7.35;4.37;;;;;;;7.04;62.96;99390.74;1854190;77;21424;-72
2021/03/28 07:20:53;;;;;;;8.73;4.78;;;;;;;7.14;61.45;99379.44;1857769;77;21055;-72
2021/03/28 07:23:41;;;;;;;7.85;4.20;;;;;;;6.62;58.18;99382.44;1859816;77;21405;-72
2021/03/28 07:26:41;;;;;;;6.87;4.20;;;;;;;6.18;59.19;99383.42;1859793;77;21071;-72
2021/03/28 07:29:43;;;;;;;9.78;5.65;;;;;;;6.10;59.18;99389.89;1859097;77;21149;-73
2021/03/28 07:32:35;;;;;;;5.45;4.40;;;;;;;7.01;61.52;99394.72;1815425;77;21555;-72
2021/03/28 07:35:48;;;;;;;5.30;3.95;;;;;;;8.60;58.88;99398.52;1859347;77;21460;-72
2021/03/28 07:38:32;;;;;;;7.72;4.78;;;;;;;8.75;56.77;99394.31;1859728;77;21141;-71
2021/03/28 07:41:31;;;;;;;6.92;4.85;;;;;;;9.31;54.84;99397.44;1859776;77;21516;-71
2021/03/28 07:44:17;;;;;;;7.03;4.50;;;;;;;9.15;52.40;99392.78;1859542;77;21098;-72
2021/03/28 07:46:55;;;;;;;7.60;4.15;;;;;;;9.95;50.73;99400.09;1859750;77;21047;-72
2021/03/28 07:49:46;;;;;;;8.73;4.55;;;;;;;9.48;54.61;99406.45;1859794;77;21086;-72
2021/03/28 07:52:42;;;;;;;5.78;3.77;;;;;;;9.29;54.54;99401.73;1809461;77;22104;-72
2021/03/28 07:55:30;;;;;;;9.98;5.22;;;;;;;8.91;54.55;99413.06;1728546;82;21115;-70
2021/03/28 07:58:36;;;;;;;6.10;4.42;;;;;;;9.63;49.12;99403.25;1835431;77;21107;-73
2021/03/28 08:01:19;;;;;;;5.62;3.45;;;;;;;9.02;49.10;99409.53;1859668;77;21056;-73
2021/03/28 08:04:02;;;;;;;5.58;3.95;;;;;;;9.35;52.19;99410.80;1830457;77;21083;-72
2021/03/28 08:06:52;;;;;;;9.20;4.60;;;;;;;8.80;50.73;99413.86;1859721;77;21290;-73
2021/03/28 08:09:55;;;;;;;5.47;4.05;;;;;;;8.59;50.43;99426.60;1859639;77;21118;-72
2021/03/28 08:12:44;;;;;;;7.83;4.08;;;;;;;8.99;52.00;99421.36;1859694;77;22429;-72
2021/03/28 08:15:37;;;;;;;6.75;4.60;;;;;;;8.89;52.82;99421.13;1859716;77;21035;-72
2021/03/28 08:18:18;;;;;;;7.53;4.25;;;;;;;7.88;53.37;99438.51;1859818;77;21142;-72
2021/03/28 08:21:11;;;;;;;4.92;4.00;;;;;;;7.66;52.47;99440.55;1859745;77;21967;-71
2021/03/28 08:24:18;;;;;;;4.83;3.77;;;;;;;7.45;54.04;99441.31;1859751;77;20992;-72
2021/03/28 08:27:04;;;;;;;5.78;4.17;;;;;;;7.34;54.24;99452.30;1859245;77;21512;-72
2021/03/28 08:30:00;;;;;;;7.70;4.25;;;;;;;9.02;49.74;99446.03;1859689;77;21094;-70
2021/03/28 08:32:47;;;;;;;8.75;4.90;;;;;;;10.71;49.05;99438.88;1859728;77;21468;-71
2021/03/28 08:35:36;;;;;;;6.20;4.15;;;;;;;12.68;45.27;99436.75;1859124;77;21253;-72
2021/03/28 08:38:41;;;;;;;8.25;4.47;;;;;;;13.10;45.92;99435.44;1857800;77;21016;-72
2021/03/28 08:41:18;;;;;;;4.92;3.25;;;;;;;13.25;45.64;99430.14;1859531;77;21087;-72
2021/03/28 08:44:02;;;;;;;4.90;3.17;;;;;;;14.30;42.18;99430.55;1859539;77;21122;-72
2021/03/28 08:47:26;;;;;;;5.60;3.92;;;;;;;13.61;43.50;99427.60;1859744;77;21451;-72
2021/03/28 08:50:27;;;;;;;7.15;4.40;;;;;;;13.13;42.44;99436.27;1859684;77;22076;-72
2021/03/28 08:53:28;;;;;;;7.62;5.15;;;;;;;11.84;44.76;99445.39;1859069;77;21043;-72
2021/03/28 08:56:23;;;;;;;11.30;7.50;;;;;;;11.16;44.92;99429.80;1858311;77;21051;-71
2021/03/28 08:59:10;;;;;;;6.70;5.47;;;;;;;10.73;45.44;99434.55;1859766;77;21408;-71
2021/03/28 09:01:50;;;;;;;8.40;4.87;;;;;;;10.14;45.77;99452.45;1859700;77;21060;-71
2021/03/28 09:04:59;;;;;;;7.83;4.28;;;;;;;9.52;47.23;99448.23;1859701;77;21452;-72
2021/03/28 09:07:54;;;;;;;8.90;4.20;;;;;;;8.80;47.42;99450.34;1859728;77;20961;-72
2021/03/28 09:10:42;;;;;;;7.60;5.28;;;;;;;8.35;48.06;99462.19;1859672;77;21479;-71
2021/03/28 09:13:40;;;;;;;9.73;5.62;;;;;;;8.14;48.14;99460.27;1859811;77;21095;-72
2021/03/28 09:16:36;;;;;;;11.60;5.17;;;;;;;8.19;49.10;99459.56;1859920;77;21067;-72
2021/03/28 09:19:35;;;;;;;7.33;4.83;;;;;;;7.83;47.66;99452.37;1829068;77;21274;-72
2021/03/28 09:22:24;;;;;;;10.28;6.20;;;;;;;8.27;48.38;99455.20;1858844;77;21099;-72
2021/03/28 09:25:14;;;;;;;;;;;;;;;8.24;48.75;99462.95;1862448;77;21027;-71
2021/03/28 09:28:09;;;;;;;9.30;5.50;;;;;;;8.30;48.34;99458.80;1859631;77;20142;-72
2021/03/28 09:30:42;;;;;;;9.60;4.75;;;;;;;8.46;48.42;99455.48;1859663;77;21075;-71
2021/03/28 09:33:47;;;;;;;11.12;6.15;;;;;;;8.64;48.32;99453.76;1859558;77;21183;-71
2021/03/28 09:36:49;;;;;;;8.48;4.95;;;;;;;8.69;46.95;99445.23;1859586;77;20916;-71
2021/03/28 09:40:05;;;;;;;7.97;4.95;;;;;;;8.17;46.04;99449.53;1858190;77;21131;-72
2021/03/28 09:43:06;;;;;;;7.62;4.85;;;;;;;7.77;46.28;99454.63;1859600;77;21079;-71
2021/03/28 09:45:44;;;;;;;8.03;4.35;;;;;;;8.31;46.96;99457.75;1859775;77;21027;-72
2021/03/28 09:48:34;;;;;;;6.92;5.30;;;;;;;8.55;45.95;99461.91;1859390;77;21189;-72
2021/03/28 09:51:36;;;;;;;9.28;5.72;;;;;;;8.74;46.22;99451.30;1859595;77;20925;-70
2021/03/28 09:54:29;;;;;;;8.05;5.17;;;;;;;8.55;44.08;99454.63;1859710;77;21063;-70
2021/03/28 09:57:07;;;;;;;8.40;5.12;;;;;;;9.16;45.71;99447.98;1859482;77;21559;-72
2021/03/28 09:59:56;;;;;;;9.60;5.45;;;;;;;9.59;45.49;99444.87;1859397;77;20996;-71
2021/03/28 10:03:05;;;;;;;7.25;5.67;;;;;;;9.78;45.59;99443.34;1859187;77;22120;-71
2021/03/28 10:05:32;;;;;;;10.00;4.58;;;;;;;9.66;44.78;99451.51;1859579;77;21409;-71
2021/03/28 10:08:11;;;;;;;10.93;8.35;;;;;;;9.12;43.08;99450.02;1859555;77;21277;-71
2021/03/28 10:11:06;;;;;;;8.38;5.35;;;;;;;9.39;45.07;99451.70;1859897;77;20913;-71
2021/03/28 10:13:50;;;;;;;7.50;3.85;;;;;;;9.53;44.50;99451.22;1859649;77;20996;-72
2021/03/28 10:17:04;;;;;;;7.67;3.92;;;;;;;9.44;44.75;99443.72;1859632;77;22074;-71
2021/03/28 10:19:42;;;;;;;8.15;4.20;;;;;;;9.39;43.50;99444.41;1859581;77;21035;-72
2021/03/28 10:22:35;;;;;;;7.28;4.28;;;;;;;9.53;43.57;99451.75;1859767;77;20960;-72
2021/03/28 10:25:38;;;;;;;10.32;4.28;;;;;;;9.59;44.11;99452.17;1858133;77;21087;-73
2021/03/28 10:28:35;;;;;;;29.30;15.83;;;;;;;9.61;44.09;99445.45;1859731;77;21729;-71
2021/03/28 10:31:25;;;;;;;13.55;5.67;;;;;;;9.56;43.35;99443.16;1859677;77;21177;-72
2021/03/28 10:34:00;;;;;;;6.30;4.58;;;;;;;9.50;42.95;99444.13;1859105;77;21474;-72
2021/03/28 10:36:55;;;;;;;5.45;3.42;;;;;;;9.46;43.30;99439.70;1859792;77;21087;-71
2021/03/28 10:39:45;;;;;;;6.37;4.25;;;;;;;9.59;42.47;99426.45;1859262;77;21409;-72
2021/03/28 10:42:23;;;;;;;7.80;4.20;;;;;;;9.40;42.92;99442.03;1859820;77;21047;-72
2021/03/28 10:45:26;;;;;;;11.28;7.83;;;;;;;9.26;42.60;99432.51;1859754;77;21393;-71
2021/03/28 10:48:15;;;;;;;7.17;4.97;;;;;;;9.04;42.19;99439.03;1793429;77;21020;-71
2021/03/28 10:51:08;;;;;;;8.83;4.78;;;;;;;9.03;43.45;99430.09;1858441;77;21491;-70
2021/03/28 10:54:13;;;;;;;7.78;3.95;;;;;;;8.98;43.47;99428.64;1859840;77;21106;-71
2021/03/28 10:57:18;;;;;;;5.72;3.85;;;;;;;8.46;42.07;99429.00;1859905;77;21369;-71
2021/03/28 11:00:38;;;;;;;9.13;5.55;;;;;;;8.15;41.19;99433.56;1859828;77;21188;-72
2021/03/28 11:03:39;;;;;;;7.00;4.03;;;;;;;8.06;42.21;99429.55;1758752;81;21149;-72
2021/03/28 11:06:37;;;;;;;6.33;3.85;;;;;;;8.40;43.54;99425.34;1857901;77;21133;-71
2021/03/28 11:09:18;;;;;;;7.30;4.00;;;;;;;8.68;42.26;99417.92;1859687;77;21043;-71
2021/03/28 11:12:13;;;;;;;8.40;5.05;;;;;;;8.87;42.93;99423.22;1839045;77;21123;-72
2021/03/28 11:15:03;;;;;;;6.80;4.05;;;;;;;8.93;43.12;99423.11;1859764;77;21293;-71
2021/03/28 11:17:56;;;;;;;;;;;;;;;8.52;42.11;99415.07;1792527;80;21129;-72
2021/03/28 11:21:01;;;;;;;8.70;4.42;;;;;;;8.80;42.89;99417.09;1790020;79;20230;-72
2021/03/28 11:23:45;;;;;;;9.88;5.70;;;;;;;8.96;42.90;99416.40;1732036;82;21471;-72
2021/03/28 11:26:42;;;;;;;8.85;5.12;;;;;;;9.17;41.82;99398.77;1819231;76;22706;-71
2021/03/28 11:29:34;;;;;;;11.53;5.42;;;;;;;9.24;42.58;99412.47;1743562;80;21424;-72
2021/03/28 11:32:14;;;;;;;14.50;8.68;;;;;;;9.35;40.87;99408.09;1785706;80;21288;-71
2021/03/28 11:35:03;;;;;;;9.10;4.92;;;;;;;9.65;42.46;99402.47;1785912;79;21047;-71
2021/03/28 11:37:43;;;;;;;6.67;4.10;;;;;;;9.30;39.56;99397.15;1786027;80;21111;-72
2021/03/28 11:40:32;;;;;;;14.40;8.73;;;;;;;9.30;39.56;99397.15;1785852;79;21416;-71
2021/03/28 11:43:11;;;;;;;7.05;4.78;;;;;;;9.71;40.25;99397.46;1785868;79;20893;-71
2021/03/28 11:46:06;;;;;;;7.87;3.58;;;;;;;9.74;40.14;99399.70;1786080;79;21137;-71
2021/03/28 11:48:39;;;;;;;7.37;4.95;;;;;;;9.99;40.58;99398.53;1785971;80;21488;-72
2021/03/28 11:51:38;;;;;;;7.22;4.72;;;;;;;9.70;39.91;99393.65;1785796;79;21121;-71
2021/03/28 11:54:14;;;;;;;7.72;4.65;;;;;;;9.48;38.73;99389.41;1785822;80;21095;-73
2021/03/28 11:56:54;;;;;;;11.15;4.62;;;;;;;9.53;40.04;99386.81;1785880;79;21113;-71
2021/03/28 11:59:26;;;;;;;6.67;3.52;;;;;;;9.23;38.43;99378.90;1785816;79;21183;-72
2021/03/28 12:02:02;;;;;;;5.85;3.92;;;;;;;9.15;38.53;99384.67;1785815;80;21094;-72
2021/03/28 12:04:42;;;;;;;7.05;3.65;;;;;;;8.87;39.14;99384.02;1785783;79;21023;-72
2021/03/28 12:07:17;;;;;;;6.70;3.87;;;;;;;9.02;39.54;99383.84;1785975;80;21492;-72
2021/03/28 12:10:07;;;;;;;7.22;4.30;;;;;;;9.15;40.59;99386.02;1785920;79;21099;-71
2021/03/28 12:12:51;;;;;;;7.05;4.12;;;;;;;9.12;39.88;99385.13;1785990;80;21187;-71
2021/03/28 12:15:46;;;;;;;7.25;4.33;;;;;;;9.20;39.33;99378.82;1785750;79;21087;-70
2021/03/28 12:18:29;;;;;;;9.03;4.90;;;;;;;9.36;40.72;99373.73;1785920;80;21114;-72
2021/03/28 12:21:04;;;;;;;7.08;3.30;;;;;;;9.29;41.08;99369.81;1785894;79;21102;-72
2021/03/28 12:23:39;;;;;;;8.03;4.28;;;;;;;9.45;41.23;99377.19;1785975;80;20928;-71
2021/03/28 12:26:19;;;;;;;5.85;3.60;;;;;;;9.46;41.01;99380.17;1785657;79;21187;-72
2021/03/28 12:28:59;;;;;;;176.25;94.62;;;;;;;9.72;41.58;99372.56;1785799;80;21087;-71
2021/03/28 12:31:46;;;;;;;20.48;12.40;;;;;;;9.68;39.98;99375.48;1785784;79;21094;-72
2021/03/28 12:34:37;;;;;;;11.73;6.78;;;;;;;9.30;39.90;99381.73;1785791;80;21106;-71
2021/03/28 12:37:15;;;;;;;12.50;6.97;;;;;;;9.58;40.95;99376.11;1785571;79;21479;-72
2021/03/28 12:39:48;;;;;;;21.73;11.80;;;;;;;9.57;41.31;99379.84;1785233;79;21210;-72
2021/03/28 12:42:36;;;;;;;35.52;21.23;;;;;;;9.57;40.85;99375.78;1785228;79;21094;-72
2021/03/28 12:45:16;;;;;;;35.83;25.02;;;;;;;9.58;40.40;99372.87;1756730;80;21094;-71
2021/03/28 12:47:51;;;;;;;10.70;6.65;;;;;;;9.64;40.14;99372.95;1785298;80;21118;-72
2021/03/28 12:50:29;;;;;;;7.67;4.70;;;;;;;9.50;40.14;99374.59;1785236;79;21028;-72
2021/03/28 12:53:07;;;;;;;10.40;6.40;;;;;;;9.55;39.61;99378.73;1785412;80;21116;-72
2021/03/28 12:55:46;;;;;;;11.22;8.65;;;;;;;9.34;39.16;99375.34;1785056;79;21508;-72
2021/03/28 12:58:26;;;;;;;92.37;62.48;;;;;;;9.70;39.94;99369.28;1785309;80;21495;-72
2021/03/28 13:01:04;;;;;;;14.70;13.08;;;;;;;9.80;38.48;99373.00;1754904;80;21487;-71
2021/03/28 13:03:40;;;;;;;11.35;7.42;;;;;;;9.94;38.90;99353.23;1785303;80;21070;-71
2021/03/28 13:06:45;;;;;;;10.65;4.90;;;;;;;9.94;38.90;99353.23;1785161;79;21250;-71
2021/03/28 13:09:19;;;;;;;9.35;4.55;;;;;;;9.83;38.76;99358.19;1785253;80;21102;-72
2021/03/28 13:11:58;;;;;;;9.05;4.53;;;;;;;9.68;39.34;99362.77;1785295;80;21484;-71
2021/03/28 13:14:38;;;;;;;9.28;6.85;;;;;;;9.74;39.19;99360.45;1785409;79;21099;-72
2021/03/28 13:17:27;;;;;;;8.33;4.00;;;;;;;9.57;39.03;99364.96;1785266;80;20968;-72
2021/03/28 13:20:14;;;;;;;6.90;4.65;;;;;;;9.62;39.28;99358.31;1785205;79;21185;-72
2021/03/28 13:22:44;;;;;;;6.37;4.33;;;;;;;9.85;40.10;99366.88;1785022;80;21086;-71
2021/03/28 13:25:25;;;;;;;7.47;3.75;;;;;;;9.97;39.18;99364.92;1789077;79;21011;-71
2021/03/28 13:28:17;;;;;;;10.13;4.85;;;;;;;9.97;39.18;99364.92;1780343;80;21111;-72
2021/03/28 13:30:45;;;;;;;6.58;3.92;;;;;;;9.82;38.16;99370.05;1780765;79;21465;-72